sensor_id;sensor_type;location;lat;lon;timestamp;pressure;altitude;pressure_sealevel;temperature;humidity
37792;BME280;29527;55.766;37.570;2023-08-06T00:00:05;100066.19;;;24.62;51.86
37792;BME280;29527;55.766;37.570;2023-08-06T00:02:32;100061.31;;;24.71;51.87
37792;BME280;29527;55.766;37.570;2023-08-06T00:04:57;100069.97;;;24.68;52.36
37792;BME280;29527;55.766;37.570;2023-08-06T00:07:23;100062.84;;;24.60;52.05
37792;BME280;29527;55.766;37.570;2023-08-06T00:09:49;100067.88;;;24.63;52.28
37792;BME280;29527;55.766;37.570;2023-08-06T00:12:14;100073.56;;;24.61;51.97
37792;BME280;29527;55.766;37.570;2023-08-06T00:14:40;100064.09;;;24.57;51.96
37792;BME280;29527;55.766;37.570;2023-08-06T00:17:05;100064.50;;;24.54;52.34
37792;BME280;29527;55.766;37.570;2023-08-06T00:19:32;100079.03;;;24.55;52.16
37792;BME280;29527;55.766;37.570;2023-08-06T00:21:57;100066.38;;;24.54;52.00
37792;BME280;29527;55.766;37.570;2023-08-06T00:24:23;100061.97;;;24.52;52.22
37792;BME280;29527;55.766;37.570;2023-08-06T00:26:48;100070.81;;;24.48;51.85
37792;BME280;29527;55.766;37.570;2023-08-06T00:29:14;100069.78;;;24.49;52.22
37792;BME280;29527;55.766;37.570;2023-08-06T00:31:40;100072.09;;;24.52;52.44
37792;BME280;29527;55.766;37.570;2023-08-06T00:34:05;100046.19;;;24.34;52.40
37792;BME280;29527;55.766;37.570;2023-08-06T00:36:31;100066.16;;;24.42;52.36
37792;BME280;29527;55.766;37.570;2023-08-06T00:38:56;100073.13;;;24.44;52.46
37792;BME280;29527;55.766;37.570;2023-08-06T00:41:22;100077.56;;;24.45;52.35
37792;BME280;29527;55.766;37.570;2023-08-06T00:43:47;100069.97;;;24.41;52.80
37792;BME280;29527;55.766;37.570;2023-08-06T00:46:13;100079.22;;;24.40;52.72
37792;BME280;29527;55.766;37.570;2023-08-06T00:48:40;100059.00;;;24.20;52.73
37792;BME280;29527;55.766;37.570;2023-08-06T00:51:06;100071.22;;;24.31;52.74
37792;BME280;29527;55.766;37.570;2023-08-06T00:53:31;100065.75;;;24.25;53.19
37792;BME280;29527;55.766;37.570;2023-08-06T00:55:58;100045.28;;;24.07;53.08
37792;BME280;29527;55.766;37.570;2023-08-06T00:58:23;100066.78;;;24.23;53.64
37792;BME280;29527;55.766;37.570;2023-08-06T01:00:50;100075.00;;;24.23;53.18
37792;BME280;29527;55.766;37.570;2023-08-06T01:03:15;100088.47;;;24.18;53.75
37792;BME280;29527;55.766;37.570;2023-08-06T01:05:41;100082.38;;;24.16;53.70
37792;BME280;29527;55.766;37.570;2023-08-06T01:13:50;100066.53;;;24.05;53.90
37792;BME280;29527;55.766;37.570;2023-08-06T01:16:19;100095.00;;;24.17;53.89
37792;BME280;29527;55.766;37.570;2023-08-06T01:18:47;100096.47;;;24.13;54.14
37792;BME280;29527;55.766;37.570;2023-08-06T01:21:18;100094.34;;;24.15;53.73
37792;BME280;29527;55.766;37.570;2023-08-06T01:23:45;100094.34;;;24.08;53.95
37792;BME280;29527;55.766;37.570;2023-08-06T01:26:30;100094.78;;;24.12;54.26
37792;BME280;29527;55.766;37.570;2023-08-06T01:31:37;100097.69;;;24.04;54.19
37792;BME280;29527;55.766;37.570;2023-08-06T01:34:07;100096.00;;;24.03;54.17
37792;BME280;29527;55.766;37.570;2023-08-06T01:36:35;100092.22;;;24.04;54.61
37792;BME280;29527;55.766;37.570;2023-08-06T01:39:01;100094.31;;;24.02;54.29
37792;BME280;29527;55.766;37.570;2023-08-06T01:41:27;100097.63;;;23.97;54.52
37792;BME280;29527;55.766;37.570;2023-08-06T01:43:52;100093.19;;;23.96;54.76
37792;BME280;29527;55.766;37.570;2023-08-06T01:46:18;100091.75;;;23.93;54.83
37792;BME280;29527;55.766;37.570;2023-08-06T01:48:43;100098.25;;;23.92;55.00
37792;BME280;29527;55.766;37.570;2023-08-06T01:51:09;100104.34;;;23.94;55.01
37792;BME280;29527;55.766;37.570;2023-08-06T01:53:35;100085.59;;;23.85;55.04
37792;BME280;29527;55.766;37.570;2023-08-06T01:56:00;100099.91;;;23.87;54.89
37792;BME280;29527;55.766;37.570;2023-08-06T01:58:26;100104.56;;;23.93;54.73
37792;BME280;29527;55.766;37.570;2023-08-06T02:00:51;100102.31;;;24.03;54.99
37792;BME280;29527;55.766;37.570;2023-08-06T02:03:17;100112.63;;;24.01;54.76
37792;BME280;29527;55.766;37.570;2023-08-06T02:05:42;100104.41;;;24.08;54.68
37792;BME280;29527;55.766;37.570;2023-08-06T02:08:08;100122.94;;;24.06;54.56
37792;BME280;29527;55.766;37.570;2023-08-06T02:10:34;100092.13;;;23.84;54.67
37792;BME280;29527;55.766;37.570;2023-08-06T02:13:00;100110.72;;;24.02;54.96
37792;BME280;29527;55.766;37.570;2023-08-06T02:15:25;100072.75;;;23.85;54.57
37792;BME280;29527;55.766;37.570;2023-08-06T02:17:51;100116.41;;;24.07;54.63
37792;BME280;29527;55.766;37.570;2023-08-06T02:20:36;100110.75;;;24.08;54.43
37792;BME280;29527;55.766;37.570;2023-08-06T02:23:02;100116.66;;;24.12;54.73
37792;BME280;29527;55.766;37.570;2023-08-06T02:25:27;100120.41;;;24.11;54.64
37792;BME280;29527;55.766;37.570;2023-08-06T02:27:53;100120.88;;;24.21;54.45
37792;BME280;29527;55.766;37.570;2023-08-06T02:30:18;100122.34;;;24.17;54.46
37792;BME280;29527;55.766;37.570;2023-08-06T02:32:44;100128.22;;;24.21;54.50
37792;BME280;29527;55.766;37.570;2023-08-06T02:35:09;100115.59;;;24.20;54.34
37792;BME280;29527;55.766;37.570;2023-08-06T02:37:35;100124.47;;;24.29;54.15
37792;BME280;29527;55.766;37.570;2023-08-06T02:40:01;100128.72;;;24.38;53.87
37792;BME280;29527;55.766;37.570;2023-08-06T02:42:29;100121.31;;;24.39;53.90
37792;BME280;29527;55.766;37.570;2023-08-06T02:44:55;100119.63;;;24.37;53.79
37792;BME280;29527;55.766;37.570;2023-08-06T02:47:21;100130.59;;;24.44;53.59
37792;BME280;29527;55.766;37.570;2023-08-06T02:49:46;100121.34;;;24.45;53.86
37792;BME280;29527;55.766;37.570;2023-08-06T02:52:12;100122.81;;;24.55;53.61
37792;BME280;29527;55.766;37.570;2023-08-06T02:54:38;100108.06;;;24.56;53.08
37792;BME280;29527;55.766;37.570;2023-08-06T02:57:04;100115.88;;;24.65;53.37
37792;BME280;29527;55.766;37.570;2023-08-06T02:59:30;100115.25;;;24.70;53.05
37792;BME280;29527;55.766;37.570;2023-08-06T03:01:56;100114.25;;;24.78;52.92
37792;BME280;29527;55.766;37.570;2023-08-06T03:04:21;100126.03;;;24.85;53.07
37792;BME280;29527;55.766;37.570;2023-08-06T03:06:48;100121.38;;;24.92;52.73
37792;BME280;29527;55.766;37.570;2023-08-06T03:09:14;100114.22;;;24.98;52.10
37792;BME280;29527;55.766;37.570;2023-08-06T03:11:39;100107.88;;;25.04;52.12
37792;BME280;29527;55.766;37.570;2023-08-06T03:14:05;100111.03;;;25.15;51.54
37792;BME280;29527;55.766;37.570;2023-08-06T03:16:30;100117.16;;;25.23;51.39
37792;BME280;29527;55.766;37.570;2023-08-06T03:18:56;100105.50;;;25.28;51.77
37792;BME280;29527;55.766;37.570;2023-08-06T03:21:21;100121.31;;;25.40;51.20
37792;BME280;29527;55.766;37.570;2023-08-06T03:23:47;100104.66;;;25.48;50.96
37792;BME280;29527;55.766;37.570;2023-08-06T03:26:14;100114.75;;;25.54;50.98
37792;BME280;29527;55.766;37.570;2023-08-06T03:28:39;100110.72;;;25.63;50.68
37792;BME280;29527;55.766;37.570;2023-08-06T03:31:05;100112.59;;;25.70;50.27
37792;BME280;29527;55.766;37.570;2023-08-06T03:33:30;100080.78;;;25.55;50.48
37792;BME280;29527;55.766;37.570;2023-08-06T03:35:56;100118.25;;;25.82;50.41
37792;BME280;29527;55.766;37.570;2023-08-06T03:38:22;100098.22;;;25.81;49.97
37792;BME280;29527;55.766;37.570;2023-08-06T03:40:48;100118.34;;;26.07;49.66
37792;BME280;29527;55.766;37.570;2023-08-06T03:43:14;100119.75;;;26.23;49.09
37792;BME280;29527;55.766;37.570;2023-08-06T03:45:40;100107.94;;;26.22;49.04
37792;BME280;29527;55.766;37.570;2023-08-06T03:48:06;100117.72;;;26.69;48.33
37792;BME280;29527;55.766;37.570;2023-08-06T03:50:31;100084.53;;;27.40;45.93
37792;BME280;29527;55.766;37.570;2023-08-06T03:52:57;100106.25;;;28.59;43.41
37792;BME280;29527;55.766;37.570;2023-08-06T03:55:22;100115.75;;;29.58;41.22
37792;BME280;29527;55.766;37.570;2023-08-06T03:57:47;100104.91;;;30.56;39.42
37792;BME280;29527;55.766;37.570;2023-08-06T04:00:13;100110.06;;;31.60;37.06
37792;BME280;29527;55.766;37.570;2023-08-06T04:02:39;100105.81;;;32.52;35.12
37792;BME280;29527;55.766;37.570;2023-08-06T04:05:04;100098.16;;;33.45;33.61
37792;BME280;29527;55.766;37.570;2023-08-06T04:07:30;100095.13;;;34.26;31.72
37792;BME280;29527;55.766;37.570;2023-08-06T04:10:01;100114.00;;;35.22;31.06
37792;BME280;29527;55.766;37.570;2023-08-06T04:12:28;100102.31;;;35.91;29.48
37792;BME280;29527;55.766;37.570;2023-08-06T04:14:54;100105.84;;;36.52;28.03
37792;BME280;29527;55.766;37.570;2023-08-06T04:17:20;100110.16;;;37.28;27.40
37792;BME280;29527;55.766;37.570;2023-08-06T04:19:50;100102.84;;;38.00;26.53
37792;BME280;29527;55.766;37.570;2023-08-06T04:22:16;100107.31;;;38.72;25.15
37792;BME280;29527;55.766;37.570;2023-08-06T04:24:42;100105.84;;;39.22;24.58
37792;BME280;29527;55.766;37.570;2023-08-06T04:27:09;100109.81;;;39.49;24.09
37792;BME280;29527;55.766;37.570;2023-08-06T04:29:35;100111.53;;;40.24;23.14
37792;BME280;29527;55.766;37.570;2023-08-06T04:32:01;100102.06;;;40.79;22.27
37792;BME280;29527;55.766;37.570;2023-08-06T04:34:27;100090.16;;;41.14;22.25
37792;BME280;29527;55.766;37.570;2023-08-06T04:36:53;100076.97;;;41.23;21.74
37792;BME280;29527;55.766;37.570;2023-08-06T04:39:18;100104.06;;;41.68;21.59
37792;BME280;29527;55.766;37.570;2023-08-06T04:41:44;100105.94;;;42.35;20.76
37792;BME280;29527;55.766;37.570;2023-08-06T04:44:09;100109.63;;;43.00;19.87
37792;BME280;29527;55.766;37.570;2023-08-06T04:46:35;100109.56;;;43.57;19.03
37792;BME280;29527;55.766;37.570;2023-08-06T04:49:00;100107.81;;;43.65;19.28
37792;BME280;29527;55.766;37.570;2023-08-06T04:51:26;100106.28;;;43.76;19.22
37792;BME280;29527;55.766;37.570;2023-08-06T04:53:51;100114.63;;;43.94;18.91
37792;BME280;29527;55.766;37.570;2023-08-06T04:56:17;100114.16;;;44.13;18.24
37792;BME280;29527;55.766;37.570;2023-08-06T04:58:42;100118.81;;;44.30;18.40
37792;BME280;29527;55.766;37.570;2023-08-06T05:01:08;100115.13;;;44.51;17.81
37792;BME280;29527;55.766;37.570;2023-08-06T05:03:33;100102.03;;;44.67;17.68
37792;BME280;29527;55.766;37.570;2023-08-06T05:05:59;100107.50;;;44.97;17.19
37792;BME280;29527;55.766;37.570;2023-08-06T05:08:24;100102.34;;;45.24;17.77
37792;BME280;29527;55.766;37.570;2023-08-06T05:10:50;100087.41;;;45.49;16.91
37792;BME280;29527;55.766;37.570;2023-08-06T05:13:15;100095.72;;;45.70;17.09
37792;BME280;29527;55.766;37.570;2023-08-06T05:15:41;100111.06;;;46.10;16.60
37792;BME280;29527;55.766;37.570;2023-08-06T05:18:10;100106.97;;;46.64;15.89
37792;BME280;29527;55.766;37.570;2023-08-06T05:20:36;100098.03;;;46.94;15.98
37792;BME280;29527;55.766;37.570;2023-08-06T05:23:02;100097.03;;;47.35;15.13
37792;BME280;29527;55.766;37.570;2023-08-06T05:25:28;100093.63;;;47.81;14.81
37792;BME280;29527;55.766;37.570;2023-08-06T05:27:53;100100.88;;;48.18;14.72
37792;BME280;29527;55.766;37.570;2023-08-06T05:30:19;100095.19;;;48.57;14.38
37792;BME280;29527;55.766;37.570;2023-08-06T05:32:44;100088.25;;;49.01;13.98
37792;BME280;29527;55.766;37.570;2023-08-06T05:35:10;100083.19;;;49.41;13.67
37792;BME280;29527;55.766;37.570;2023-08-06T05:37:35;100075.91;;;49.44;13.58
37792;BME280;29527;55.766;37.570;2023-08-06T05:40:01;100079.75;;;49.85;13.40
37792;BME280;29527;55.766;37.570;2023-08-06T05:42:31;100083.72;;;50.11;13.09
37792;BME280;29527;55.766;37.570;2023-08-06T05:44:56;100086.16;;;50.44;12.68
37792;BME280;29527;55.766;37.570;2023-08-06T05:47:22;100083.00;;;50.97;12.32
37792;BME280;29527;55.766;37.570;2023-08-06T05:49:47;100080.41;;;51.34;12.13
37792;BME280;29527;55.766;37.570;2023-08-06T05:52:13;100084.59;;;51.47;11.77
37792;BME280;29527;55.766;37.570;2023-08-06T05:54:38;100080.28;;;51.79;11.23
37792;BME280;29527;55.766;37.570;2023-08-06T05:57:06;100072.25;;;52.14;11.09
37792;BME280;29527;55.766;37.570;2023-08-06T05:59:31;100079.28;;;52.56;11.29
37792;BME280;29527;55.766;37.570;2023-08-06T06:01:57;100067.03;;;52.92;10.97
37792;BME280;29527;55.766;37.570;2023-08-06T06:04:22;100059.28;;;53.14;10.48
37792;BME280;29527;55.766;37.570;2023-08-06T06:06:48;100078.00;;;53.51;10.13
37792;BME280;29527;55.766;37.570;2023-08-06T06:09:13;100087.84;;;53.47;10.41
37792;BME280;29527;55.766;37.570;2023-08-06T06:11:39;100071.47;;;53.55;9.98
37792;BME280;29527;55.766;37.570;2023-08-06T06:14:05;100068.53;;;53.69;9.70
37792;BME280;29527;55.766;37.570;2023-08-06T06:16:30;100069.31;;;53.84;9.58
37792;BME280;29527;55.766;37.570;2023-08-06T06:18:56;100073.25;;;54.16;9.39
37792;BME280;29527;55.766;37.570;2023-08-06T06:21:23;100081.41;;;54.21;9.30
37792;BME280;29527;55.766;37.570;2023-08-06T06:23:49;100067.34;;;54.45;8.99
37792;BME280;29527;55.766;37.570;2023-08-06T06:26:18;100071.72;;;54.64;9.29
37792;BME280;29527;55.766;37.570;2023-08-06T06:28:43;100069.53;;;55.25;8.82
37792;BME280;29527;55.766;37.570;2023-08-06T06:31:09;100059.00;;;55.49;8.63
37792;BME280;29527;55.766;37.570;2023-08-06T06:33:35;100071.84;;;55.75;8.68
37792;BME280;29527;55.766;37.570;2023-08-06T06:36:00;100064.50;;;56.02;7.94
37792;BME280;29527;55.766;37.570;2023-08-06T06:38:28;100049.34;;;56.01;8.08
37792;BME280;29527;55.766;37.570;2023-08-06T06:40:54;100067.34;;;55.74;8.05
37792;BME280;29527;55.766;37.570;2023-08-06T06:43:20;100059.59;;;55.71;8.44
37792;BME280;29527;55.766;37.570;2023-08-06T06:45:46;100044.16;;;55.89;7.96
37792;BME280;29527;55.766;37.570;2023-08-06T06:48:11;100053.59;;;55.89;8.46
37792;BME280;29527;55.766;37.570;2023-08-06T06:50:37;100049.00;;;55.26;8.60
37792;BME280;29527;55.766;37.570;2023-08-06T06:53:04;100051.41;;;55.66;8.37
37792;BME280;29527;55.766;37.570;2023-08-06T06:55:30;100055.09;;;56.80;7.83
37792;BME280;29527;55.766;37.570;2023-08-06T06:57:55;100058.53;;;57.59;7.33
37792;BME280;29527;55.766;37.570;2023-08-06T07:00:21;100054.78;;;57.99;6.65
37792;BME280;29527;55.766;37.570;2023-08-06T07:02:46;100051.41;;;58.54;6.77
37792;BME280;29527;55.766;37.570;2023-08-06T07:05:11;100058.03;;;59.01;5.97
37792;BME280;29527;55.766;37.570;2023-08-06T07:07:37;100053.38;;;59.50;5.61
37792;BME280;29527;55.766;37.570;2023-08-06T07:10:03;100055.84;;;59.05;5.76
37792;BME280;29527;55.766;37.570;2023-08-06T07:12:29;100060.22;;;58.80;6.02
37792;BME280;29527;55.766;37.570;2023-08-06T07:14:54;100055.03;;;58.58;5.93
37792;BME280;29527;55.766;37.570;2023-08-06T07:17:20;100041.81;;;58.08;6.21
37792;BME280;29527;55.766;37.570;2023-08-06T07:19:46;100041.94;;;58.20;6.58
37792;BME280;29527;55.766;37.570;2023-08-06T07:22:11;100039.34;;;58.59;6.36
37792;BME280;29527;55.766;37.570;2023-08-06T07:24:36;100046.72;;;58.27;5.99
37792;BME280;29527;55.766;37.570;2023-08-06T07:27:02;100044.50;;;57.61;6.94
37792;BME280;29527;55.766;37.570;2023-08-06T07:29:28;100035.34;;;58.03;6.50
37792;BME280;29527;55.766;37.570;2023-08-06T07:31:53;100032.13;;;58.68;6.33
37792;BME280;29527;55.766;37.570;2023-08-06T07:34:20;100038.44;;;59.09;6.00
37792;BME280;29527;55.766;37.570;2023-08-06T07:36:46;100033.94;;;59.37;6.27
37792;BME280;29527;55.766;37.570;2023-08-06T07:39:12;100043.94;;;59.49;5.41
37792;BME280;29527;55.766;37.570;2023-08-06T07:41:38;100043.75;;;59.95;5.98
37792;BME280;29527;55.766;37.570;2023-08-06T07:44:04;100032.19;;;60.21;5.04
37792;BME280;29527;55.766;37.570;2023-08-06T07:46:29;100036.63;;;60.61;5.47
37792;BME280;29527;55.766;37.570;2023-08-06T07:48:55;100022.25;;;60.22;5.44
37792;BME280;29527;55.766;37.570;2023-08-06T07:51:21;100030.06;;;59.57;6.00
37792;BME280;29527;55.766;37.570;2023-08-06T07:53:46;100033.56;;;58.76;6.52
37792;BME280;29527;55.766;37.570;2023-08-06T07:56:12;100018.97;;;58.33;6.38
37792;BME280;29527;55.766;37.570;2023-08-06T07:58:37;100041.88;;;58.24;6.56
37792;BME280;29527;55.766;37.570;2023-08-06T08:01:03;100021.25;;;57.89;6.65
37792;BME280;29527;55.766;37.570;2023-08-06T08:03:29;100040.06;;;57.16;7.26
37792;BME280;29527;55.766;37.570;2023-08-06T08:05:55;100034.44;;;56.38;7.44
37792;BME280;29527;55.766;37.570;2023-08-06T08:08:24;100029.78;;;55.89;8.29
37792;BME280;29527;55.766;37.570;2023-08-06T08:10:50;100016.97;;;55.66;8.33
37792;BME280;29527;55.766;37.570;2023-08-06T08:13:15;100019.06;;;55.62;8.34
37792;BME280;29527;55.766;37.570;2023-08-06T08:15:41;100010.31;;;54.61;8.65
37792;BME280;29527;55.766;37.570;2023-08-06T08:18:06;100006.38;;;53.77;9.42
37792;BME280;29527;55.766;37.570;2023-08-06T08:20:32;100001.66;;;52.03;10.38
37792;BME280;29527;55.766;37.570;2023-08-06T08:22:59;99991.22;;;49.30;12.44
37792;BME280;29527;55.766;37.570;2023-08-06T08:25:25;99996.69;;;46.71;14.41
37792;BME280;29527;55.766;37.570;2023-08-06T08:27:53;99998.56;;;44.38;16.29
37792;BME280;29527;55.766;37.570;2023-08-06T08:30:18;99996.38;;;42.38;18.17
37792;BME280;29527;55.766;37.570;2023-08-06T08:32:43;99991.91;;;40.73;20.79
37792;BME280;29527;55.766;37.570;2023-08-06T08:35:09;99999.84;;;39.80;22.14
37792;BME280;29527;55.766;37.570;2023-08-06T08:37:37;99994.38;;;39.10;23.07
37792;BME280;29527;55.766;37.570;2023-08-06T08:40:03;99990.19;;;38.52;24.22
37792;BME280;29527;55.766;37.570;2023-08-06T08:42:30;99972.53;;;38.04;24.49
37792;BME280;29527;55.766;37.570;2023-08-06T08:44:56;99987.59;;;37.51;25.44
37792;BME280;29527;55.766;37.570;2023-08-06T08:47:23;99992.44;;;36.96;26.78
37792;BME280;29527;55.766;37.570;2023-08-06T08:49:52;99997.44;;;36.40;27.67
37792;BME280;29527;55.766;37.570;2023-08-06T08:52:20;99963.84;;;35.91;28.02
37792;BME280;29527;55.766;37.570;2023-08-06T08:54:47;99984.53;;;35.85;28.50
37792;BME280;29527;55.766;37.570;2023-08-06T08:57:17;99991.31;;;35.69;29.15
37792;BME280;29527;55.766;37.570;2023-08-06T08:59:42;99985.31;;;35.46;29.55
37792;BME280;29527;55.766;37.570;2023-08-06T09:02:11;99992.66;;;35.26;29.73
37792;BME280;29527;55.766;37.570;2023-08-06T09:04:38;99998.34;;;34.85;30.92
37792;BME280;29527;55.766;37.570;2023-08-06T09:07:05;99986.44;;;34.63;31.21
37792;BME280;29527;55.766;37.570;2023-08-06T09:09:34;99988.38;;;34.47;31.33
37792;BME280;29527;55.766;37.570;2023-08-06T09:12:11;99992.28;;;34.36;31.12
37792;BME280;29527;55.766;37.570;2023-08-06T09:14:37;99978.97;;;34.12;32.72
37792;BME280;29527;55.766;37.570;2023-08-06T09:17:04;99990.63;;;34.25;31.97
37792;BME280;29527;55.766;37.570;2023-08-06T09:19:31;99994.53;;;34.29;32.38
37792;BME280;29527;55.766;37.570;2023-08-06T09:21:56;99981.16;;;34.41;32.09
37792;BME280;29527;55.766;37.570;2023-08-06T09:24:22;99980.63;;;34.55;31.67
37792;BME280;29527;55.766;37.570;2023-08-06T09:26:48;99964.50;;;34.57;31.97
37792;BME280;29527;55.766;37.570;2023-08-06T09:29:13;99972.53;;;34.69;31.48
37792;BME280;29527;55.766;37.570;2023-08-06T09:31:45;99968.56;;;34.90;30.96
37792;BME280;29527;55.766;37.570;2023-08-06T09:36:42;99971.09;;;34.71;31.49
37792;BME280;29527;55.766;37.570;2023-08-06T09:39:13;99977.25;;;34.63;31.37
37792;BME280;29527;55.766;37.570;2023-08-06T09:41:39;99959.50;;;34.54;32.09
37792;BME280;29527;55.766;37.570;2023-08-06T09:44:05;99965.06;;;34.54;31.97
37792;BME280;29527;55.766;37.570;2023-08-06T09:46:32;99962.53;;;34.52;31.93
37792;BME280;29527;55.766;37.570;2023-08-06T09:48:58;99959.19;;;34.55;31.71
37792;BME280;29527;55.766;37.570;2023-08-06T09:51:23;99955.00;;;34.47;31.63
37792;BME280;29527;55.766;37.570;2023-08-06T09:53:50;99963.41;;;34.53;31.76
37792;BME280;29527;55.766;37.570;2023-08-06T09:56:17;99963.94;;;34.60;31.40
37792;BME280;29527;55.766;37.570;2023-08-06T09:58:43;99957.22;;;34.66;31.42
37792;BME280;29527;55.766;37.570;2023-08-06T10:01:10;99945.53;;;34.69;31.49
37792;BME280;29527;55.766;37.570;2023-08-06T10:03:36;99949.44;;;34.68;31.31
37792;BME280;29527;55.766;37.570;2023-08-06T10:06:03;99940.53;;;34.66;31.30
37792;BME280;29527;55.766;37.570;2023-08-06T10:08:32;99926.09;;;34.74;31.51
37792;BME280;29527;55.766;37.570;2023-08-06T10:10:58;99930.84;;;34.63;31.40
37792;BME280;29527;55.766;37.570;2023-08-06T10:13:24;99932.47;;;34.70;31.57
37792;BME280;29527;55.766;37.570;2023-08-06T10:15:50;99928.06;;;34.53;31.85
37792;BME280;29527;55.766;37.570;2023-08-06T10:18:17;99900.31;;;34.27;32.44
37792;BME280;29527;55.766;37.570;2023-08-06T10:20:46;99933.09;;;34.25;32.85
37792;BME280;29527;55.766;37.570;2023-08-06T10:23:12;99918.69;;;34.07;32.47
37792;BME280;29527;55.766;37.570;2023-08-06T10:25:42;99922.00;;;34.20;32.53
37792;BME280;29527;55.766;37.570;2023-08-06T10:28:09;99910.91;;;34.15;33.26
37792;BME280;29527;55.766;37.570;2023-08-06T10:30:42;99921.16;;;34.19;32.88
37792;BME280;29527;55.766;37.570;2023-08-06T10:33:08;99890.59;;;33.93;32.95
37792;BME280;29527;55.766;37.570;2023-08-06T10:35:37;99924.25;;;33.97;33.32
37792;BME280;29527;55.766;37.570;2023-08-06T10:38:13;99918.41;;;34.04;32.80
37792;BME280;29527;55.766;37.570;2023-08-06T10:40:48;99920.88;;;33.95;33.53
37792;BME280;29527;55.766;37.570;2023-08-06T10:45:55;99903.38;;;33.95;33.31
37792;BME280;29527;55.766;37.570;2023-08-06T10:48:38;99907.84;;;34.11;33.26
37792;BME280;29527;55.766;37.570;2023-08-06T10:51:09;99908.94;;;34.15;32.92
37792;BME280;29527;55.766;37.570;2023-08-06T10:53:34;99907.88;;;34.01;33.61
37792;BME280;29527;55.766;37.570;2023-08-06T10:56:01;99905.06;;;33.85;33.33
37792;BME280;29527;55.766;37.570;2023-08-06T10:58:33;99907.00;;;33.90;33.54
37792;BME280;29527;55.766;37.570;2023-08-06T11:00:59;99917.56;;;33.72;33.78
37792;BME280;29527;55.766;37.570;2023-08-06T11:03:27;99920.03;;;33.74;33.61
37792;BME280;29527;55.766;37.570;2023-08-06T11:05:52;99914.19;;;33.60;33.63
37792;BME280;29527;55.766;37.570;2023-08-06T11:08:28;99885.06;;;33.52;33.75
37792;BME280;29527;55.766;37.570;2023-08-06T11:10:55;99918.63;;;33.56;33.88
37792;BME280;29527;55.766;37.570;2023-08-06T11:13:21;99900.88;;;33.52;34.00
37792;BME280;29527;55.766;37.570;2023-08-06T11:15:47;99889.50;;;33.53;33.88
37792;BME280;29527;55.766;37.570;2023-08-06T11:18:12;99910.03;;;33.68;34.00
37792;BME280;29527;55.766;37.570;2023-08-06T11:20:39;99895.63;;;33.81;33.71
37792;BME280;29527;55.766;37.570;2023-08-06T11:23:05;99863.41;;;33.85;32.76
37792;BME280;29527;55.766;37.570;2023-08-06T11:25:30;99894.19;;;34.30;32.49
37792;BME280;29527;55.766;37.570;2023-08-06T11:27:56;99895.84;;;34.42;32.19
37792;BME280;29527;55.766;37.570;2023-08-06T11:30:22;99880.56;;;34.39;32.04
37792;BME280;29527;55.766;37.570;2023-08-06T11:32:47;99893.91;;;34.53;32.40
37792;BME280;29527;55.766;37.570;2023-08-06T11:35:14;99895.03;;;34.52;32.21
37792;BME280;29527;55.766;37.570;2023-08-06T11:37:44;99874.16;;;34.44;31.84
37792;BME280;29527;55.766;37.570;2023-08-06T11:40:10;99856.97;;;34.26;32.25
37792;BME280;29527;55.766;37.570;2023-08-06T11:42:36;99896.66;;;34.42;32.28
37792;BME280;29527;55.766;37.570;2023-08-06T11:45:03;99895.31;;;34.40;32.29
37792;BME280;29527;55.766;37.570;2023-08-06T11:47:31;99883.88;;;34.41;32.32
37792;BME280;29527;55.766;37.570;2023-08-06T11:49:57;99888.38;;;34.32;33.25
37792;BME280;29527;55.766;37.570;2023-08-06T11:52:25;99891.72;;;34.18;32.75
37792;BME280;29527;55.766;37.570;2023-08-06T11:55:09;99880.34;;;34.15;33.05
37792;BME280;29527;55.766;37.570;2023-08-06T11:57:43;99874.25;;;34.02;33.55
37792;BME280;29527;55.766;37.570;2023-08-06T12:00:11;99880.63;;;33.98;33.08
37792;BME280;29527;55.766;37.570;2023-08-06T12:02:39;99887.28;;;33.86;32.85
37792;BME280;29527;55.766;37.570;2023-08-06T12:07:37;99878.41;;;33.63;33.53
37792;BME280;29527;55.766;37.570;2023-08-06T12:10:04;99880.34;;;33.58;33.50
37792;BME280;29527;55.766;37.570;2023-08-06T12:12:30;99862.00;;;33.41;33.64
37792;BME280;29527;55.766;37.570;2023-08-06T12:14:56;99870.91;;;33.48;33.69
37792;BME280;29527;55.766;37.570;2023-08-06T12:17:25;99869.78;;;33.60;33.46
37792;BME280;29527;55.766;37.570;2023-08-06T12:19:51;99865.94;;;33.66;33.12
37792;BME280;29527;55.766;37.570;2023-08-06T12:22:17;99845.09;;;33.69;33.07
37792;BME280;29527;55.766;37.570;2023-08-06T12:24:45;99851.47;;;33.79;32.84
37792;BME280;29527;55.766;37.570;2023-08-06T12:27:11;99868.94;;;33.90;32.82
37792;BME280;29527;55.766;37.570;2023-08-06T12:29:40;99851.19;;;33.86;33.40
37792;BME280;29527;55.766;37.570;2023-08-06T12:32:06;99843.97;;;33.80;33.49
37792;BME280;29527;55.766;37.570;2023-08-06T12:34:32;99854.25;;;33.69;34.16
37792;BME280;29527;55.766;37.570;2023-08-06T12:36:58;99852.56;;;33.63;33.69
37792;BME280;29527;55.766;37.570;2023-08-06T12:39:23;99850.38;;;33.55;33.94
37792;BME280;29527;55.766;37.570;2023-08-06T12:41:49;99845.59;;;33.40;34.23
37792;BME280;29527;55.766;37.570;2023-08-06T12:44:15;99843.16;;;33.43;34.76
37792;BME280;29527;55.766;37.570;2023-08-06T12:46:40;99853.41;;;33.43;34.73
37792;BME280;29527;55.766;37.570;2023-08-06T12:49:05;99847.84;;;33.38;34.90
37792;BME280;29527;55.766;37.570;2023-08-06T12:51:32;99848.94;;;33.42;34.56
37792;BME280;29527;55.766;37.570;2023-08-06T12:53:59;99842.59;;;33.46;33.94
37792;BME280;29527;55.766;37.570;2023-08-06T12:56:25;99841.78;;;33.56;34.11